Ashley, Ohio
Current Conditions -  °F | °C
As of 7:36 AM on Thursday 23 Oct 2014 (Local Time) from KDLZ Reporting Station
Haze Haze  
Wind Chill: 36°   Ceiling: Unl
Heat Index: 36°   Visibility: 4mi
Dew Point: 36°   Wind: 0mph
Humidity: 100%   Direction: NA
Pressure: 30.23"   Gusts: NA
Location:  40.41°N, 82.96°W
Report Text: KDLZ 231136Z AUTO 00000KT 4SM BR CLR 02/02 A3023 RMK AO2
Loading
Personal Weather Stations






























Interactive Weather Map New forecast layout! Learn more

10-Day Weather Forecast

Advertisements
Track Severe Weather on mobile